Time;durP1;ratioP1;P1;durP2;ratioP2;P2;SDS_P1;SDS_P2;PMS_P1;PMS_P2;Temp;Humidity;BMP_temperature;BMP_pressure;BME280_temperature;BME280_humidity;BME280_pressure;Samples;Min_cycle;Max_cycle;Signal;HPM_P1;HPM_P2
2021/07/31 00:02:01;;;;;;;10.07;9.07;;;16.50;99.90;;;;;;5050808;28;20661;-72
2021/07/31 00:04:26;;;;;;;9.30;8.40;;;16.40;99.90;;;;;;5051799;28;20175;-72
2021/07/31 00:06:52;;;;;;;11.33;10.17;;;16.10;99.90;;;;;;5049227;28;20188;-73
2021/07/31 00:09:17;;;;;;;10.13;9.13;;;16.40;99.90;;;;;;5052193;28;20282;-71
2021/07/31 00:11:43;;;;;;;9.97;8.97;;;16.30;99.90;;;;;;5052046;28;20210;-74
2021/07/31 00:14:08;;;;;;;10.37;9.37;;;16.50;99.90;;;;;;5037862;28;20242;-72
2021/07/31 00:16:34;;;;;;;10.70;9.70;;;16.40;99.90;;;;;;5028383;28;20179;-72
2021/07/31 00:19:00;;;;;;;11.37;10.00;;;16.40;99.90;;;;;;5031410;28;20184;-74
2021/07/31 00:21:25;;;;;;;10.73;9.60;;;16.50;99.90;;;;;;5044714;28;20595;-73
2021/07/31 00:23:51;;;;;;;11.67;10.50;;;16.50;99.90;;;;;;5050982;28;20214;-74
2021/07/31 00:26:16;;;;;;;12.10;8.93;;;16.60;99.90;;;;;;5036771;28;20549;-74
2021/07/31 00:28:42;;;;;;;11.53;10.30;;;16.60;99.90;;;;;;5029584;28;20185;-74
2021/07/31 00:31:07;;;;;;;12.80;10.47;;;16.60;99.90;;;;;;5041506;28;20230;-74
2021/07/31 00:33:33;;;;;;;11.30;10.10;;;16.50;99.90;;;;;;5052035;28;20616;-71
2021/07/31 00:35:58;;;;;;;12.17;10.70;;;16.80;99.90;;;;;;5048144;28;20175;-73
2021/07/31 00:38:24;;;;;;;11.40;10.40;;;16.80;99.90;;;;;;5047397;28;20199;-74
2021/07/31 00:40:49;;;;;;;12.83;11.47;;;16.90;99.90;;;;;;5050029;28;20541;-73
2021/07/31 00:43:15;;;;;;;12.80;11.27;;;16.70;99.90;;;;;;5051908;28;20269;-72
2021/07/31 00:45:40;;;;;;;13.63;11.50;;;16.70;99.90;;;;;;5051408;28;20236;-74
2021/07/31 00:48:06;;;;;;;12.63;11.33;;;17.20;99.90;;;;;;5046895;28;20191;-74
2021/07/31 00:50:33;;;;;;;12.20;10.93;;;17.00;99.90;;;;;;5047173;28;20433;-74
2021/07/31 00:52:59;;;;;;;10.50;9.40;;;17.20;99.90;;;;;;5050621;28;20238;-74
2021/07/31 00:55:26;;;;;;;10.67;9.70;;;17.30;99.90;;;;;;5051225;28;20434;-74
2021/07/31 00:57:53;;;;;;;10.27;9.23;;;17.00;99.90;;;;;;5047838;28;20204;-72
2021/07/31 01:00:18;;;;;;;11.40;10.20;;;17.00;99.90;;;;;;5047378;28;20937;-73
2021/07/31 01:02:44;;;;;;;11.10;9.73;;;17.10;99.90;;;;;;5048708;28;20457;-73
2021/07/31 01:05:11;;;;;;;11.20;10.00;;;17.20;99.90;;;;;;5050495;28;20248;-74
2021/07/31 01:07:37;;;;;;;10.03;9.07;;;17.30;99.90;;;;;;5051188;28;20741;-76
2021/07/31 01:10:04;;;;;;;9.20;8.20;;;17.20;99.90;;;;;;5049315;28;20468;-72
2021/07/31 01:12:32;;;;;;;10.57;9.50;;;17.40;99.90;;;;;;5046756;28;21162;-71
2021/07/31 01:14:58;;;;;;;9.83;8.90;;;17.70;99.90;;;;;;5051171;28;20469;-73
2021/07/31 01:17:23;;;;;;;10.63;9.53;;;17.40;99.90;;;;;;5050858;28;20476;-72
2021/07/31 01:19:48;;;;;;;10.20;9.30;;;17.70;99.90;;;;;;5054134;28;20200;-73
2021/07/31 01:22:14;;;;;;;9.53;8.60;;;17.40;99.90;;;;;;5048563;28;20187;-71
2021/07/31 01:24:40;;;;;;;10.60;9.60;;;17.40;99.90;;;;;;5048257;28;20197;-71
2021/07/31 01:27:05;;;;;;;10.87;9.77;;;17.60;99.90;;;;;;5048921;28;20186;-71
2021/07/31 01:29:31;;;;;;;9.67;8.73;;;17.40;99.90;;;;;;5045476;28;20189;-71
2021/07/31 01:31:56;;;;;;;9.90;8.80;;;17.10;99.90;;;;;;5047591;28;20567;-74
2021/07/31 01:34:22;;;;;;;10.13;8.50;;;17.60;99.90;;;;;;5048783;28;20228;-72
2021/07/31 01:36:48;;;;;;;8.60;7.70;;;17.20;99.90;;;;;;5048068;28;20186;-74
2021/07/31 01:39:13;;;;;;;9.43;8.50;;;16.90;99.90;;;;;;5051147;28;20651;-72
2021/07/31 01:41:39;;;;;;;9.37;8.37;;;17.40;99.90;;;;;;5048819;28;20197;-71
2021/07/31 01:44:05;;;;;;;8.73;7.93;;;17.10;99.90;;;;;;5046919;28;20668;-73
2021/07/31 01:46:30;;;;;;;11.67;9.70;;;16.80;99.90;;;;;;5049507;28;20205;-73
2021/07/31 01:48:55;;;;;;;8.33;7.53;;;17.10;99.90;;;;;;5049336;28;20433;-73
2021/07/31 01:51:21;;;;;;;8.33;7.57;;;17.00;99.90;;;;;;5048926;28;20184;-72
2021/07/31 01:53:46;;;;;;;8.60;7.57;;;17.10;99.90;;;;;;5047745;28;20223;-74
2021/07/31 01:56:12;;;;;;;10.73;7.43;;;16.80;99.90;;;;;;5046189;28;20218;-71
2021/07/31 01:58:38;;;;;;;8.50;7.67;;;16.60;99.90;;;;;;5046640;28;20190;-72
2021/07/31 02:01:04;;;;;;;11.83;9.33;;;16.50;99.90;;;;;;5049919;28;20196;-71
2021/07/31 02:03:29;;;;;;;10.47;8.07;;;16.60;99.90;;;;;;5031731;28;20218;-74
2021/07/31 02:05:55;;;;;;;7.57;6.87;;;16.50;99.90;;;;;;5027083;28;20195;-74
2021/07/31 02:08:21;;;;;;;7.50;6.80;;;16.50;99.90;;;;;;5027888;28;20195;-73
2021/07/31 02:10:46;;;;;;;7.90;7.20;;;16.50;99.90;;;;;;5030891;28;20441;-74
2021/07/31 02:13:12;;;;;;;7.50;6.50;;;16.30;99.90;;;;;;5048754;28;20213;-72
2021/07/31 02:15:44;;;;;;;7.23;6.53;;;16.10;99.90;;;;;;5048737;28;20248;-73
2021/07/31 02:18:11;;;;;;;7.13;6.50;;;16.10;99.90;;;;;;5046265;28;20428;-74
2021/07/31 02:20:37;;;;;;;8.67;6.97;;;16.00;99.90;;;;;;5047373;28;20444;-72
2021/07/31 02:23:04;;;;;;;6.90;6.27;;;15.90;99.90;;;;;;5047715;28;20475;-72
2021/07/31 02:25:29;;;;;;;6.70;6.03;;;15.80;99.90;;;;;;5049959;28;20423;-74
2021/07/31 02:27:55;;;;;;;7.10;6.43;;;15.80;99.90;;;;;;5048454;28;20928;-73
2021/07/31 02:30:21;;;;;;;7.07;6.37;;;15.50;99.90;;;;;;5045811;28;20241;-74
2021/07/31 02:32:46;;;;;;;7.23;5.57;;;15.70;99.90;;;;;;5044758;28;20245;-74
2021/07/31 02:35:12;;;;;;;6.23;5.63;;;15.60;99.90;;;;;;5026167;28;20438;-74
2021/07/31 02:37:38;;;;;;;6.90;5.70;;;15.50;99.90;;;;;;5029853;28;20179;-74
2021/07/31 02:40:04;;;;;;;7.00;6.10;;;15.50;99.90;;;;;;5030368;28;20519;-74
2021/07/31 02:42:30;;;;;;;6.10;5.50;;;15.60;99.90;;;;;;5048477;28;20183;-75
2021/07/31 02:44:56;;;;;;;7.37;6.67;;;15.10;99.90;;;;;;5045190;28;20445;-72
2021/07/31 02:47:21;;;;;;;6.10;5.50;;;15.10;99.90;;;;;;5045858;28;20432;-75
2021/07/31 02:49:47;;;;;;;7.53;6.37;;;14.90;99.90;;;;;;5046333;28;20194;-72
2021/07/31 02:52:12;;;;;;;6.60;6.00;;;15.20;99.90;;;;;;5048014;28;20254;-74
2021/07/31 02:54:38;;;;;;;7.50;5.70;;;14.70;99.90;;;;;;5049263;28;20186;-74
2021/07/31 02:57:04;;;;;;;6.57;5.97;;;14.80;99.90;;;;;;5048077;28;20194;-74
2021/07/31 02:59:29;;;;;;;7.10;6.17;;;14.60;99.90;;;;;;5045461;28;20236;-75
2021/07/31 03:01:55;;;;;;;7.13;6.27;;;14.60;99.90;;;;;;5046272;28;20619;-74
2021/07/31 03:04:20;;;;;;;7.40;6.60;;;14.70;99.90;;;;;;5047725;28;20179;-74
2021/07/31 03:06:46;;;;;;;6.20;5.50;;;14.40;99.90;;;;;;5048181;28;20170;-74
2021/07/31 03:09:11;;;;;;;6.87;6.17;;;14.50;99.90;;;;;;5045391;28;20226;-73
2021/07/31 03:11:37;;;;;;;6.13;5.53;;;14.60;99.90;;;;;;5045126;28;20213;-72
2021/07/31 03:14:02;;;;;;;7.33;5.17;;;14.50;99.90;;;;;;5048869;28;20197;-73
2021/07/31 03:16:28;;;;;;;6.03;5.43;;;14.50;99.90;;;;;;5049038;28;20187;-74
2021/07/31 03:18:53;;;;;;;6.30;5.70;;;14.10;99.90;;;;;;5045947;28;20189;-74
2021/07/31 03:21:19;;;;;;;6.73;5.97;;;14.10;99.90;;;;;;5044773;28;20282;-75
2021/07/31 03:23:44;;;;;;;6.33;5.37;;;14.40;99.90;;;;;;5046843;28;20210;-75
2021/07/31 03:26:10;;;;;;;7.47;6.30;;;14.10;99.90;;;;;;5047844;28;20197;-76
2021/07/31 03:28:35;;;;;;;6.23;5.63;;;14.10;99.90;;;;;;5049315;28;20195;-74
2021/07/31 03:31:01;;;;;;;6.80;5.87;;;14.00;99.90;;;;;;5044030;28;20237;-72
2021/07/31 03:33:26;;;;;;;7.43;6.10;;;14.00;99.90;;;;;;5046840;28;20252;-74
2021/07/31 03:35:53;;;;;;;6.73;6.07;;;13.90;99.90;;;;;;5048478;28;20726;-74
2021/07/31 03:38:19;;;;;;;7.73;6.17;;;14.10;99.90;;;;;;5053549;28;20190;-74
2021/07/31 03:40:45;;;;;;;6.80;6.20;;;13.90;99.90;;;;;;5052954;28;20490;-75
2021/07/31 03:43:14;;;;;;;6.30;5.70;;;13.90;99.90;;;;;;5050825;28;20890;-76
2021/07/31 03:45:39;;;;;;;5.77;5.10;;;13.70;99.90;;;;;;5050298;28;20249;-74
2021/07/31 03:48:05;;;;;;;5.57;5.17;;;13.50;99.90;;;;;;5049749;28;20498;-72
2021/07/31 03:50:31;;;;;;;5.63;5.10;;;13.70;99.90;;;;;;5051622;28;20237;-75
2021/07/31 03:52:56;;;;;;;6.40;5.80;;;13.50;99.90;;;;;;5052035;28;20447;-74
2021/07/31 03:55:23;;;;;;;5.87;5.27;;;13.60;99.90;;;;;;5052135;28;20236;-74
2021/07/31 03:57:49;;;;;;;5.60;5.10;;;13.50;99.90;;;;;;5049555;28;20198;-77
2021/07/31 04:00:15;;;;;;;5.47;5.07;;;13.40;99.90;;;;;;5053138;28;20485;-73
2021/07/31 04:02:40;;;;;;;5.07;4.67;;;13.20;99.90;;;;;;5052500;28;20218;-74
2021/07/31 04:05:06;;;;;;;5.37;4.87;;;13.50;99.90;;;;;;5051728;28;20423;-71
2021/07/31 04:07:32;;;;;;;5.27;4.60;;;13.50;99.90;;;;;;5049198;28;20194;-75
2021/07/31 04:09:57;;;;;;;6.20;5.13;;;13.20;99.90;;;;;;5051769;28;20443;-76
2021/07/31 04:12:23;;;;;;;8.13;5.30;;;13.50;99.90;;;;;;5052385;28;20289;-74
2021/07/31 04:14:48;;;;;;;6.70;5.43;;;13.20;99.90;;;;;;5051846;28;20187;-74
2021/07/31 04:17:14;;;;;;;5.73;5.03;;;13.20;99.90;;;;;;5050014;28;20182;-76
2021/07/31 04:19:39;;;;;;;5.67;4.97;;;13.10;99.90;;;;;;5051001;28;20197;-73
2021/07/31 04:22:05;;;;;;;5.23;4.83;;;13.20;99.90;;;;;;5050799;28;20230;-75
2021/07/31 04:24:31;;;;;;;5.50;5.00;;;13.20;99.90;;;;;;5051381;28;20536;-75
2021/07/31 04:26:56;;;;;;;6.03;5.50;;;13.00;99.90;;;;;;5049540;28;20190;-74
2021/07/31 04:29:22;;;;;;;5.00;4.50;;;13.30;99.90;;;;;;5051146;28;20186;-76
2021/07/31 04:31:48;;;;;;;5.40;5.00;;;13.20;99.90;;;;;;5043705;28;20228;-75
2021/07/31 04:34:14;;;;;;;6.57;5.40;;;13.10;99.90;;;;;;5054139;28;20240;-75
2021/07/31 04:36:39;;;;;;;7.20;5.20;;;13.40;99.90;;;;;;5051099;28;20225;-74
2021/07/31 04:39:06;;;;;;;5.23;4.70;;;13.20;99.90;;;;;;5049000;28;20433;-74
2021/07/31 04:41:31;;;;;;;5.83;5.33;;;13.50;99.90;;;;;;5052098;28;20829;-77
2021/07/31 04:43:57;;;;;;;6.17;5.23;;;13.40;99.90;;;;;;5049865;28;20433;-73
2021/07/31 04:46:23;;;;;;;6.27;5.63;;;13.40;99.90;;;;;;5049706;28;20191;-74
2021/07/31 04:48:48;;;;;;;5.63;5.10;;;13.30;99.90;;;;;;5049837;28;20210;-74
2021/07/31 04:51:14;;;;;;;5.83;4.87;;;13.10;99.90;;;;;;5051090;28;20190;-74
2021/07/31 04:53:40;;;;;;;6.03;5.43;;;13.30;99.90;;;;;;5052040;28;20251;-76
2021/07/31 04:56:06;;;;;;;7.57;5.70;;;13.30;99.90;;;;;;5049875;28;20194;-74
2021/07/31 04:58:31;;;;;;;5.40;4.90;;;13.20;99.90;;;;;;5048831;28;20181;-77
2021/07/31 05:01:00;;;;;;;5.10;4.70;;;13.10;99.90;;;;;;5051860;28;20445;-75
2021/07/31 05:03:29;;;;;;;5.17;4.67;;;13.50;99.90;;;;;;5051496;28;20865;-75
2021/07/31 05:05:54;;;;;;;5.80;5.23;;;13.20;99.90;;;;;;5049416;28;20445;-76
2021/07/31 05:08:20;;;;;;;5.40;4.90;;;13.20;99.90;;;;;;5049956;28;20987;-74
2021/07/31 05:10:47;;;;;;;5.60;5.10;;;13.40;99.90;;;;;;5051215;28;20182;-75
2021/07/31 05:13:13;;;;;;;5.93;5.33;;;13.50;99.90;;;;;;5050899;28;20189;-74
2021/07/31 05:15:40;;;;;;;5.70;5.10;;;13.60;99.90;;;;;;5050733;28;20420;-74
2021/07/31 05:18:07;;;;;;;6.23;5.63;;;13.70;99.90;;;;;;5048088;28;20689;-76
2021/07/31 05:20:33;;;;;;;6.03;5.43;;;13.80;99.90;;;;;;5047614;28;20463;-74
2021/07/31 05:23:00;;;;;;;7.53;4.93;;;13.80;99.90;;;;;;5050208;28;21083;-74
2021/07/31 05:25:26;;;;;;;6.00;5.07;;;14.20;99.90;;;;;;5051166;28;20452;-74
2021/07/31 05:27:51;;;;;;;5.20;4.70;;;14.80;99.90;;;;;;5047843;28;20441;-72
2021/07/31 05:30:18;;;;;;;5.00;4.57;;;15.10;99.90;;;;;;5048486;28;20226;-73
2021/07/31 05:32:43;;;;;;;5.83;4.20;;;15.60;99.90;;;;;;5050638;28;20186;-73
2021/07/31 05:35:09;;;;;;;4.20;3.80;;;16.00;99.90;;;;;;5050230;28;20447;-74
2021/07/31 05:37:35;;;;;;;4.23;3.83;;;16.70;99.90;;;;;;5048620;28;20230;-73
2021/07/31 05:40:02;;;;;;;4.27;3.97;;;17.20;99.90;;;;;;5047179;28;20475;-74
2021/07/31 05:42:27;;;;;;;4.50;3.63;;;17.60;99.90;;;;;;5049342;28;20489;-74
2021/07/31 05:44:59;;;;;;;3.60;3.30;;;17.90;99.90;;;;;;5048673;28;20445;-74
2021/07/31 05:47:26;;;;;;;4.03;3.73;;;18.60;99.90;;;;;;5048759;28;20468;-74
2021/07/31 05:49:53;;;;;;;3.10;2.80;;;18.90;99.90;;;;;;5046602;28;20443;-74
2021/07/31 05:52:20;;;;;;;3.37;3.07;;;19.00;99.90;;;;;;5049041;28;20442;-75
2021/07/31 05:54:48;;;;;;;3.63;3.20;;;19.40;99.90;;;;;;5046720;28;20546;-74
2021/07/31 05:57:14;;;;;;;3.73;3.43;;;19.90;99.90;;;;;;5050742;28;21142;-74
2021/07/31 05:59:39;;;;;;;5.23;3.40;;;20.10;99.90;;;;;;5049375;28;20514;-74
2021/07/31 06:02:06;;;;;;;4.10;3.20;;;20.40;99.90;;;;;;5047164;28;20224;-72
2021/07/31 06:04:32;;;;;;;3.87;3.60;;;21.10;99.90;;;;;;5047899;28;20634;-75
2021/07/31 06:07:00;;;;;;;3.63;3.33;;;21.30;99.90;;;;;;5048351;28;20440;-72
2021/07/31 06:09:26;;;;;;;4.33;3.60;;;21.40;99.90;;;;;;5049610;28;20429;-74
2021/07/31 06:11:52;;;;;;;5.67;3.40;;;21.80;99.80;;;;;;5041705;28;20495;-77
2021/07/31 06:14:18;;;;;;;3.60;3.30;;;21.70;95.80;;;;;;5048273;28;20464;-74
2021/07/31 06:16:43;;;;;;;3.00;2.70;;;22.30;96.30;;;;;;5049824;28;20183;-74
2021/07/31 06:19:09;;;;;;;3.70;3.50;;;22.30;93.80;;;;;;5044846;28;20434;-72
2021/07/31 06:21:34;;;;;;;2.90;2.60;;;22.60;93.40;;;;;;5047677;28;20684;-74
2021/07/31 06:24:00;;;;;;;3.30;3.00;;;22.80;87.20;;;;;;5047108;28;20187;-73
2021/07/31 06:26:25;;;;;;;3.00;2.80;;;23.00;82.50;;;;;;5037733;28;20900;-75
2021/07/31 06:28:51;;;;;;;3.60;3.10;;;23.30;77.60;;;;;;5045837;28;20185;-74
2021/07/31 06:31:17;;;;;;;2.50;2.23;;;23.30;75.10;;;;;;5047576;28;20228;-77
2021/07/31 06:33:42;;;;;;;4.40;2.90;;;23.30;74.30;;;;;;5048028;28;20243;-75
2021/07/31 06:36:08;;;;;;;2.50;2.20;;;22.80;73.40;;;;;;5048562;28;20207;-73
2021/07/31 06:38:33;;;;;;;2.97;2.77;;;22.90;75.70;;;;;;5047429;28;20197;-75
2021/07/31 06:40:59;;;;;;;3.07;2.77;;;22.40;74.10;;;;;;5048318;28;20195;-73
2021/07/31 06:43:24;;;;;;;3.00;2.57;;;22.20;75.30;;;;;;5043827;28;20214;-75
2021/07/31 06:45:50;;;;;;;3.07;2.87;;;21.90;77.00;;;;;;5044853;28;20646;-74
2021/07/31 06:48:15;;;;;;;3.87;3.20;;;21.60;78.70;;;;;;5032708;28;20190;-74
2021/07/31 06:50:41;;;;;;;3.50;3.10;;;21.30;78.10;;;;;;5047610;28;20193;-76
2021/07/31 06:53:06;;;;;;;3.47;3.20;;;21.10;78.90;;;;;;5049308;28;20265;-73
2021/07/31 06:55:32;;;;;;;7.33;3.20;;;20.90;76.30;;;;;;5050585;28;20702;-75
2021/07/31 06:57:57;;;;;;;3.73;3.23;;;20.80;78.40;;;;;;5047658;28;20312;-76
2021/07/31 07:00:23;;;;;;;3.20;2.90;;;20.90;80.10;;;;;;5038304;28;20202;-77
2021/07/31 07:02:48;;;;;;;3.17;2.87;;;21.10;82.70;;;;;;5028833;28;20411;-78
2021/07/31 07:05:14;;;;;;;2.50;2.30;;;21.00;85.20;;;;;;5040043;28;20267;-78
2021/07/31 07:07:40;;;;;;;3.47;2.60;;;21.60;83.60;;;;;;5048562;28;20660;-74
2021/07/31 07:10:07;;;;;;;3.10;2.80;;;21.40;81.70;;;;;;5048252;28;20209;-73
2021/07/31 07:12:32;;;;;;;2.80;2.60;;;21.20;77.10;;;;;;5048084;28;20449;-75
2021/07/31 07:14:58;;;;;;;2.93;2.67;;;21.10;76.80;;;;;;5048272;28;20463;-74
2021/07/31 07:17:23;;;;;;;3.67;2.10;;;21.00;77.20;;;;;;5040630;28;20218;-74
2021/07/31 07:19:49;;;;;;;4.67;3.10;;;20.90;75.60;;;;;;5030859;28;20256;-74
2021/07/31 07:22:15;;;;;;;2.77;2.33;;;20.70;72.40;;;;;;5045830;28;20225;-76
2021/07/31 07:24:40;;;;;;;2.67;2.40;;;20.40;72.50;;;;;;5045625;28;20193;-75
2021/07/31 07:27:06;;;;;;;5.30;2.40;;;20.20;75.10;;;;;;5049033;28;20197;-75
2021/07/31 07:29:31;;;;;;;2.83;2.47;;;20.10;75.70;;;;;;5048613;28;20546;-75
2021/07/31 07:31:57;;;;;;;4.03;3.37;;;19.70;76.70;;;;;;5046715;28;20208;-73
2021/07/31 07:34:22;;;;;;;2.60;2.30;;;19.90;79.50;;;;;;5046886;28;20926;-72
2021/07/31 07:36:48;;;;;;;2.53;2.33;;;19.70;78.60;;;;;;5044596;28;20277;-73
2021/07/31 07:39:14;;;;;;;2.77;2.37;;;19.90;76.30;;;;;;5031337;28;20272;-72
2021/07/31 07:41:39;;;;;;;2.73;2.50;;;20.10;78.50;;;;;;5029732;28;20288;-72
2021/07/31 07:44:05;;;;;;;2.90;2.70;;;19.70;75.80;;;;;;5030304;28;20178;-71
2021/07/31 07:46:30;;;;;;;2.63;2.43;;;20.20;76.40;;;;;;5048738;28;20242;-73
2021/07/31 07:48:56;;;;;;;3.10;2.80;;;20.20;74.30;;;;;;5048062;28;20209;-71
2021/07/31 07:51:21;;;;;;;2.83;2.63;;;20.20;73.00;;;;;;5050822;28;20183;-72
2021/07/31 07:53:47;;;;;;;3.47;2.43;;;19.90;72.60;;;;;;5046515;28;20196;-72
2021/07/31 07:56:13;;;;;;;2.70;2.50;;;20.00;71.70;;;;;;5041217;28;20199;-72
2021/07/31 07:58:38;;;;;;;3.20;2.40;;;20.00;71.10;;;;;;5029491;28;20195;-72
2021/07/31 08:01:08;;;;;;;2.70;2.50;;;20.00;69.30;;;;;;5040779;28;20274;-71
2021/07/31 08:03:33;;;;;;;2.40;2.20;;;20.30;71.90;;;;;;5026009;28;20316;-71
2021/07/31 08:05:59;;;;;;;2.83;2.30;;;20.60;72.90;;;;;;5036572;28;20464;-71
2021/07/31 08:08:24;;;;;;;3.20;2.53;;;21.00;70.20;;;;;;5048298;28;20819;-72
2021/07/31 08:10:52;;;;;;;3.30;2.70;;;21.60;67.80;;;;;;5047578;28;20557;-73
2021/07/31 08:13:18;;;;;;;2.40;2.20;;;22.40;66.80;;;;;;5048157;28;20550;-73
2021/07/31 08:15:43;;;;;;;3.57;2.33;;;23.50;59.80;;;;;;5046071;28;20514;-74
2021/07/31 08:18:10;;;;;;;2.73;2.53;;;24.10;56.10;;;;;;5045713;28;20260;-72
2021/07/31 08:20:36;;;;;;;2.37;2.10;;;24.40;55.10;;;;;;5045967;28;20183;-73
2021/07/31 08:23:02;;;;;;;2.53;2.10;;;24.60;53.40;;;;;;5047586;28;20480;-74
2021/07/31 08:25:28;;;;;;;3.57;2.00;;;25.40;54.00;;;;;;5050544;28;20185;-73
2021/07/31 08:27:53;;;;;;;2.60;1.93;;;25.90;50.50;;;;;;5050622;28;20527;-74
2021/07/31 08:30:19;;;;;;;3.97;2.27;;;26.30;48.60;;;;;;5052147;28;20237;-74
2021/07/31 08:32:44;;;;;;;3.90;2.53;;;26.20;48.50;;;;;;5050138;28;20173;-74
2021/07/31 08:35:10;;;;;;;2.50;2.27;;;25.60;49.80;;;;;;5050758;28;20219;-72
2021/07/31 08:37:37;;;;;;;4.73;2.07;;;26.10;50.80;;;;;;5051140;28;20237;-73
2021/07/31 08:40:07;;;;;;;2.60;2.27;;;25.90;49.70;;;;;;5050912;28;20538;-73
2021/07/31 08:42:35;;;;;;;4.30;2.37;;;25.40;49.90;;;;;;5048797;28;20523;-71
2021/07/31 08:45:02;;;;;;;8.50;3.20;;;24.70;49.90;;;;;;5048411;28;20430;-71
2021/07/31 08:47:29;;;;;;;2.63;2.43;;;24.40;50.40;;;;;;5052269;28;20782;-71
2021/07/31 08:49:56;;;;;;;2.50;2.27;;;24.10;52.10;;;;;;5050881;28;20441;-73
2021/07/31 08:52:23;;;;;;;2.60;2.40;;;24.70;53.30;;;;;;5048241;28;20462;-71
2021/07/31 08:54:49;;;;;;;2.57;2.17;;;25.20;50.40;;;;;;5049989;28;20449;-74
2021/07/31 08:57:14;;;;;;;3.17;2.30;;;25.50;48.40;;;;;;5049931;28;20434;-73
2021/07/31 08:59:40;;;;;;;2.53;2.33;;;26.50;47.10;;;;;;5049798;28;20193;-72
2021/07/31 09:02:07;;;;;;;4.63;2.20;;;27.30;46.00;;;;;;5052212;28;20739;-73
2021/07/31 09:04:33;;;;;;;2.33;2.13;;;28.40;44.10;;;;;;5051920;28;20246;-72
2021/07/31 09:07:10;;;;;;;1.87;1.67;;;29.60;41.40;;;;;;5048514;28;21015;-74
2021/07/31 09:09:35;;;;;;;2.27;1.90;;;30.60;39.30;;;;;;5048918;28;20209;-74
2021/07/31 09:12:04;;;;;;;3.13;1.73;;;31.50;37.90;;;;;;5048870;28;20511;-73
2021/07/31 09:14:30;;;;;;;2.20;1.80;;;32.30;36.10;;;;;;5047903;28;20204;-73
2021/07/31 09:16:57;;;;;;;2.67;2.47;;;33.10;33.90;;;;;;5050673;28;20499;-74
2021/07/31 09:19:25;;;;;;;2.30;2.10;;;33.70;32.40;;;;;;5052069;28;20772;-72
2021/07/31 09:22:01;;;;;;;2.77;1.57;;;34.10;31.00;;;;;;5049331;28;20447;-73
2021/07/31 09:24:26;;;;;;;3.47;1.63;;;34.20;29.60;;;;;;5048804;28;20513;-71
2021/07/31 09:26:54;;;;;;;2.27;1.87;;;34.50;29.50;;;;;;5050921;28;20462;-71
2021/07/31 09:29:24;;;;;;;2.07;1.77;;;35.00;29.90;;;;;;5051489;28;20182;-73
2021/07/31 09:31:58;;;;;;;2.37;2.20;;;35.30;28.90;;;;;;5050788;28;20431;-71
2021/07/31 09:34:45;;;;;;;1.80;1.67;;;35.80;27.90;;;;;;5048581;28;20775;-73
2021/07/31 09:37:23;;;;;;;2.33;1.70;;;35.90;28.20;;;;;;5050303;28;20453;-71
2021/07/31 09:39:58;;;;;;;1.80;1.50;;;36.30;27.70;;;;;;5050480;28;20429;-75
2021/07/31 09:42:25;;;;;;;2.73;2.00;;;36.10;26.70;;;;;;5050617;28;20567;-73
2021/07/31 09:44:51;;;;;;;2.23;1.67;;;35.80;27.20;;;;;;5046670;28;20452;-72
2021/07/31 09:47:16;;;;;;;1.60;1.50;;;36.00;27.20;;;;;;5049792;28;20874;-74
2021/07/31 09:49:42;;;;;;;1.53;1.23;;;36.10;26.00;;;;;;5051548;28;20204;-71
2021/07/31 09:52:16;;;;;;;1.60;1.47;;;36.20;26.80;;;;;;5049950;28;20251;-72
2021/07/31 09:54:43;;;;;;;1.50;1.40;;;36.50;26.70;;;;;;5049400;28;20592;-72
2021/07/31 09:57:11;;;;;;;1.93;1.50;;;36.80;26.00;;;;;;5047477;28;20468;-73
2021/07/31 09:59:46;;;;;;;1.67;1.57;;;37.20;25.90;;;;;;5047668;28;20457;-71
2021/07/31 10:02:19;;;;;;;1.60;1.50;;;37.60;26.10;;;;;;5048575;28;20487;-71
2021/07/31 10:04:46;;;;;;;1.50;1.33;;;38.00;25.50;;;;;;5051136;28;20932;-71
2021/07/31 10:07:16;;;;;;;2.17;1.60;;;38.20;22.80;;;;;;5048269;28;20452;-73
2021/07/31 10:09:49;;;;;;;3.17;1.60;;;38.10;24.20;;;;;;5048999;28;20484;-72
2021/07/31 10:12:17;;;;;;;1.93;1.53;;;38.10;23.90;;;;;;5045283;28;20943;-71
2021/07/31 10:14:43;;;;;;;1.60;1.50;;;38.20;25.20;;;;;;5049691;28;20445;-74
2021/07/31 10:17:11;;;;;;;2.23;1.70;;;38.40;23.80;;;;;;5049726;28;20556;-73
2021/07/31 10:19:44;;;;;;;2.60;1.60;;;39.00;24.10;;;;;;5049230;28;20534;-72
2021/07/31 10:22:11;;;;;;;1.50;1.40;;;39.60;23.50;;;;;;5046668;28;20782;-72
2021/07/31 10:24:58;;;;;;;1.60;1.50;;;40.10;23.80;;;;;;5046992;28;20444;-72
2021/07/31 10:27:25;;;;;;;1.80;1.70;;;40.30;22.60;;;;;;5045419;28;20497;-71
2021/07/31 10:29:53;;;;;;;4.13;1.50;;;40.20;23.00;;;;;;5046269;28;21021;-71
2021/07/31 10:32:21;;;;;;;2.17;1.63;;;40.00;22.20;;;;;;5045214;28;20480;-74
2021/07/31 10:34:57;;;;;;;1.90;1.33;;;40.10;22.20;;;;;;5038829;28;20437;-73
2021/07/31 10:37:31;;;;;;;2.27;1.33;;;40.20;21.90;;;;;;5050321;28;20752;-74
2021/07/31 10:40:00;;;;;;;2.50;1.37;;;40.20;22.60;;;;;;5036609;28;20476;-73
2021/07/31 10:42:26;;;;;;;1.97;1.30;;;40.40;21.70;;;;;;5036036;28;20440;-72
2021/07/31 10:45:31;;;;;;;1.90;1.30;;;40.30;21.90;;;;;;5048607;28;20843;-73
2021/07/31 10:48:00;;;;;;;1.30;1.20;;;40.10;21.70;;;;;;5031572;28;20433;-73
2021/07/31 10:50:26;;;;;;;1.57;1.47;;;40.00;21.60;;;;;;5041594;28;20446;-73
2021/07/31 10:53:44;;;;;;;2.30;2.10;;;40.50;22.20;;;;;;5039254;28;20486;-75
2021/07/31 10:56:10;;;;;;;1.70;1.20;;;41.10;20.50;;;;;;5021293;28;20190;-72
2021/07/31 10:58:37;;;;;;;2.00;1.53;;;41.10;20.70;;;;;;5050390;28;20962;-72
2021/07/31 11:01:20;;;;;;;1.70;1.60;;;40.90;20.90;;;;;;5048010;28;21065;-74
2021/07/31 11:03:47;;;;;;;3.27;1.40;;;41.00;20.10;;;;;;5048579;28;20437;-72
2021/07/31 11:06:13;;;;;;;3.60;1.70;;;41.10;21.20;;;;;;5046317;28;20445;-73
2021/07/31 11:08:45;;;;;;;1.67;1.57;;;41.40;21.70;;;;;;5048063;28;20433;-73
2021/07/31 11:11:13;;;;;;;2.13;1.50;;;41.90;20.70;;;;;;5047748;28;20799;-74
2021/07/31 11:13:39;;;;;;;1.50;1.40;;;42.00;20.30;;;;;;5048945;28;20488;-75
2021/07/31 11:16:07;;;;;;;2.20;1.50;;;41.90;20.40;;;;;;5048322;28;20425;-72
2021/07/31 11:18:32;;;;;;;5.13;2.30;;;42.00;20.60;;;;;;5046406;28;20218;-73
2021/07/31 11:21:07;;;;;;;2.00;1.50;;;42.20;20.40;;;;;;5048755;28;20974;-73
2021/07/31 11:23:36;;;;;;;1.70;1.60;;;42.60;20.10;;;;;;5049348;28;20540;-72
2021/07/31 11:26:02;;;;;;;1.30;1.20;;;42.90;20.80;;;;;;5032296;28;20520;-71
2021/07/31 11:28:29;;;;;;;1.40;1.30;;;43.40;19.60;;;;;;5037415;28;20623;-74
2021/07/31 11:30:54;;;;;;;3.00;1.70;;;43.80;19.60;;;;;;5034315;28;20280;-73
2021/07/31 11:33:25;;;;;;;3.27;1.40;;;43.90;18.70;;;;;;5031328;28;20509;-71
2021/07/31 11:35:53;;;;;;;1.83;1.73;;;43.90;18.90;;;;;;5046570;28;20201;-76
2021/07/31 11:38:26;;;;;;;2.43;1.47;;;43.70;18.80;;;;;;5033065;28;20433;-71
2021/07/31 11:41:12;;;;;;;1.50;1.40;;;43.80;18.90;;;;;;5027348;28;20473;-74
2021/07/31 11:43:53;;;;;;;1.60;1.50;;;43.80;18.60;;;;;;5047530;28;20437;-71
2021/07/31 11:46:27;;;;;;;1.60;1.50;;;42.90;19.20;;;;;;5046656;28;20444;-72
2021/07/31 11:48:55;;;;;;;2.20;1.40;;;43.00;20.40;;;;;;5042301;28;20491;-75
2021/07/31 11:51:20;;;;;;;2.27;1.50;;;42.50;19.10;;;;;;5044790;28;20452;-72
2021/07/31 11:53:46;;;;;;;1.77;1.67;;;42.00;20.60;;;;;;5047442;28;20488;-75
2021/07/31 11:56:19;;;;;;;2.33;1.60;;;41.10;20.20;;;;;;5048075;28;20190;-75
2021/07/31 11:58:47;;;;;;;2.17;1.90;;;39.80;20.90;;;;;;5050667;28;20191;-73
2021/07/31 12:01:13;;;;;;;1.73;1.63;;;38.20;22.00;;;;;;5048007;28;20819;-72
2021/07/31 12:03:40;;;;;;;3.20;2.20;;;37.30;23.70;;;;;;5049249;28;20536;-70
2021/07/31 12:06:05;;;;;;;2.80;1.90;;;37.00;25.10;;;;;;5051253;28;21203;-70
2021/07/31 12:08:46;;;;;;;2.40;2.20;;;36.30;25.50;;;;;;5052508;28;20421;-71
2021/07/31 12:11:11;;;;;;;2.57;1.80;;;36.90;26.10;;;;;;5050520;28;20178;-74
2021/07/31 12:13:37;;;;;;;1.90;1.60;;;38.60;24.40;;;;;;5048117;28;20483;-70
2021/07/31 12:16:03;;;;;;;1.83;1.70;;;39.80;23.10;;;;;;5048418;28;20597;-73
2021/07/31 12:18:29;;;;;;;1.90;1.80;;;39.50;22.40;;;;;;5046748;28;20224;-72
2021/07/31 12:20:55;;;;;;;2.07;1.87;;;39.80;22.80;;;;;;5047825;28;20194;-73
2021/07/31 12:23:34;;;;;;;1.90;1.53;;;40.90;22.40;;;;;;5051710;28;20444;-73
2021/07/31 12:26:03;;;;;;;1.77;1.67;;;42.20;21.30;;;;;;5049140;28;20194;-71
2021/07/31 12:28:38;;;;;;;1.60;1.50;;;42.90;19.90;;;;;;5049934;28;20445;-74
2021/07/31 12:31:23;;;;;;;1.47;1.30;;;43.30;18.90;;;;;;5048526;28;20801;-71
2021/07/31 12:33:49;;;;;;;1.93;1.83;;;43.60;19.00;;;;;;5048521;28;21395;-74
2021/07/31 12:36:14;;;;;;;3.10;2.10;;;43.80;19.00;;;;;;5051769;28;20440;-73
2021/07/31 12:38:40;;;;;;;1.97;1.70;;;44.10;17.80;;;;;;5051636;28;20194;-72
2021/07/31 12:41:05;;;;;;;1.67;1.57;;;42.70;17.90;;;;;;5050377;28;20182;-73
2021/07/31 12:43:32;;;;;;;4.37;1.73;;;41.00;19.50;;;;;;5047954;28;20200;-71
2021/07/31 12:46:00;;;;;;;1.50;1.40;;;39.40;20.80;;;;;;5049059;28;20178;-72